Time;durP1;ratioP1;P1;durP2;ratioP2;P2;SDS_P1;SDS_P2;PMS_P1;PMS_P2;Temp;Humidity;BMP_temperature;BMP_pressure;BME280_temperature;BME280_humidity;BME280_pressure;Samples;Min_cycle;Max_cycle;Signal;HPM_P1;HPM_P2
2021/08/29 00:01:03;;;;;;;1.77;0.75;;;;;;;;;;10270161;28;20054;-72
2021/08/29 00:06:08;;;;;;;0.20;0.10;;;;;;;;;;10272860;28;20058;-72
2021/08/29 00:11:11;;;;;;;0.00;0.00;;;;;;;;;;10273087;28;20409;-72
2021/08/29 00:16:15;;;;;;;0.00;0.00;;;;;;;;;;10272699;28;20470;-72
2021/08/29 00:21:20;;;;;;;0.10;0.10;;;;;;;;;;10272856;28;20059;-72
2021/08/29 00:26:23;;;;;;;0.30;0.15;;;;;;;;;;10273834;28;20049;-72
2021/08/29 00:31:28;;;;;;;3.53;1.85;;;;;;;;;;10278067;28;20472;-72
2021/08/29 00:36:31;;;;;;;2.53;1.25;;;;;;;;;;10281086;28;20042;-71
2021/08/29 00:41:34;;;;;;;0.00;0.00;;;;;;;;;;10260069;28;20474;-71
2021/08/29 00:47:02;;;;;;;0.03;0.03;;;;;;;;;;10261024;28;20046;-72
2021/08/29 00:52:30;;;;;;;0.00;0.00;;;;;;;;;;10259477;28;20100;-72
2021/08/29 00:57:36;;;;;;;0.00;0.00;;;;;;;;;;10258470;28;20126;-72
2021/08/29 01:03:00;;;;;;;0.00;0.00;;;;;;;;;;10259588;28;20094;-73
2021/08/29 01:08:06;;;;;;;0.00;0.00;;;;;;;;;;10260513;28;20397;-72
2021/08/29 01:13:12;;;;;;;0.10;0.10;;;;;;;;;;10261686;28;20051;-72
2021/08/29 01:18:16;;;;;;;0.10;0.10;;;;;;;;;;10275507;28;20120;-72
2021/08/29 01:23:22;;;;;;;0.10;0.00;;;;;;;;;;10259599;28;20481;-71
2021/08/29 01:28:35;;;;;;;0.00;0.00;;;;;;;;;;10258908;28;20046;-72
2021/08/29 01:33:49;;;;;;;0.00;0.00;;;;;;;;;;10277506;28;20050;-72
2021/08/29 01:38:52;;;;;;;0.00;0.00;;;;;;;;;;10258271;28;20138;-72
2021/08/29 01:43:56;;;;;;;0.00;0.00;;;;;;;;;;10260183;28;20161;-72
2021/08/29 01:49:00;;;;;;;0.00;0.00;;;;;;;;;;10274999;28;20627;-72
2021/08/29 01:54:03;;;;;;;0.00;0.00;;;;;;;;;;10260805;28;20382;-72
2021/08/29 01:59:28;;;;;;;0.00;0.00;;;;;;;;;;10241783;28;20066;-72
2021/08/29 02:04:32;;;;;;;0.00;0.00;;;;;;;;;;10263455;28;20042;-72
2021/08/29 02:09:39;;;;;;;0.00;0.00;;;;;;;;;;10255361;28;20769;-72
2021/08/29 02:14:47;;;;;;;;;;;;;;;;;;10258852;28;20046;-71
2021/08/29 02:19:53;;;;;;;0.00;0.00;;;;;;;;;;10256756;28;20004;-71
2021/08/29 02:24:56;;;;;;;0.00;0.00;;;;;;;;;;10261065;28;20809;-72
2021/08/29 02:30:00;;;;;;;0.00;0.00;;;;;;;;;;10258525;28;20078;-72
2021/08/29 02:35:04;;;;;;;0.00;0.00;;;;;;;;;;10258873;28;20054;-72
2021/08/29 02:40:18;;;;;;;0.05;0.00;;;;;;;;;;10256050;28;20058;-72
2021/08/29 02:45:21;;;;;;;0.00;0.00;;;;;;;;;;10277773;28;20042;-72
2021/08/29 02:50:25;;;;;;;0.00;0.00;;;;;;;;;;10256261;28;20046;-72
2021/08/29 02:55:28;;;;;;;0.00;0.00;;;;;;;;;;10273254;28;20046;-71
2021/08/29 03:00:32;;;;;;;0.00;0.00;;;;;;;;;;10256053;28;20043;-72
2021/08/29 03:05:44;;;;;;;0.00;0.00;;;;;;;;;;10253279;28;20046;-71
2021/08/29 03:10:47;;;;;;;0.00;0.00;;;;;;;;;;10256037;28;20055;-71
2021/08/29 03:15:50;;;;;;;0.00;0.00;;;;;;;;;;10256372;28;20050;-71
2021/08/29 03:21:13;;;;;;;0.00;0.00;;;;;;;;;;10270436;28;20062;-71
2021/08/29 03:26:16;;;;;;;0.00;0.00;;;;;;;;;;10256486;28;20043;-71
2021/08/29 03:31:19;;;;;;;0.00;0.00;;;;;;;;;;10254509;28;20121;-71
2021/08/29 03:36:24;;;;;;;0.00;0.00;;;;;;;;;;10255703;28;20051;-71
2021/08/29 03:41:29;;;;;;;0.00;0.00;;;;;;;;;;10255323;28;20493;-71
2021/08/29 03:46:34;;;;;;;0.00;0.00;;;;;;;;;;10256779;28;20146;-71
2021/08/29 03:51:46;;;;;;;0.00;0.00;;;;;;;;;;10254036;28;20290;-71
2021/08/29 03:56:48;;;;;;;0.00;0.00;;;;;;;;;;10255030;28;20529;-72
2021/08/29 04:01:51;;;;;;;0.10;0.10;;;;;;;;;;10251131;28;20841;-72
2021/08/29 04:06:56;;;;;;;0.00;0.00;;;;;;;;;;10252871;28;20178;-71
2021/08/29 04:12:05;;;;;;;0.30;0.20;;;;;;;;;;10256372;28;20077;-71
2021/08/29 04:17:31;;;;;;;0.17;0.17;;;;;;;;;;10269419;28;20054;-71
2021/08/29 04:22:36;;;;;;;0.30;0.30;;;;;;;;;;10273671;28;20143;-72
2021/08/29 04:27:39;;;;;;;0.20;0.20;;;;;;;;;;10250002;28;20054;-71
2021/08/29 04:32:44;;;;;;;0.10;0.10;;;;;;;;;;10272120;28;20461;-71
2021/08/29 04:37:56;;;;;;;0.30;0.30;;;;;;;;;;10251336;28;20049;-71
2021/08/29 04:42:59;;;;;;;1.17;0.90;;;;;;;;;;10255114;28;20480;-72
2021/08/29 04:48:06;;;;;;;0.95;0.68;;;;;;;;;;10253426;28;20046;-71
2021/08/29 04:53:11;;;;;;;0.40;0.30;;;;;;;;;;10255420;28;20043;-71
2021/08/29 04:58:13;;;;;;;0.10;0.10;;;;;;;;;;10253732;28;20441;-71
2021/08/29 05:03:17;;;;;;;0.20;0.20;;;;;;;;;;10253886;28;20413;-72
2021/08/29 05:08:21;;;;;;;0.15;0.10;;;;;;;;;;10250750;28;20097;-72
2021/08/29 05:13:24;;;;;;;0.00;0.00;;;;;;;;;;10271468;28;20062;-73
2021/08/29 05:18:27;;;;;;;0.10;0.10;;;;;;;;;;10261491;28;20157;-72
2021/08/29 05:23:46;;;;;;;0.35;0.25;;;;;;;;;;10260650;28;20042;-72
2021/08/29 05:29:11;;;;;;;0.08;0.08;;;;;;;;;;10259722;28;20671;-72
2021/08/29 05:34:14;;;;;;;0.00;0.00;;;;;;;;;;10259629;28;20493;-72
2021/08/29 05:39:18;;;;;;;0.00;0.00;;;;;;;;;;10289664;28;20396;-73
2021/08/29 05:44:22;;;;;;;0.00;0.00;;;;;;;;;;10269444;28;20061;-74
2021/08/29 05:49:25;;;;;;;0.00;0.00;;;;;;;;;;10274775;28;20042;-74
2021/08/29 05:54:29;;;;;;;0.00;0.00;;;;;;;;;;10262230;28;20046;-73
2021/08/29 05:59:32;;;;;;;0.00;0.00;;;;;;;;;;10260031;28;20062;-73
2021/08/29 06:04:36;;;;;;;0.00;0.00;;;;;;;;;;10261759;28;20194;-76
2021/08/29 06:09:56;;;;;;;0.10;0.10;;;;;;;;;;10258643;28;20105;-72
2021/08/29 06:14:59;;;;;;;0.00;0.00;;;;;;;;;;10277891;28;20485;-71
2021/08/29 06:20:03;;;;;;;0.00;0.00;;;;;;;;;;10256141;28;20114;-73
2021/08/29 06:25:08;;;;;;;0.00;0.00;;;;;;;;;;10262316;28;20050;-70
2021/08/29 06:30:30;;;;;;;0.00;0.00;;;;;;;;;;10275599;28;20141;-73
2021/08/29 06:36:11;;;;;;;0.00;0.00;;;;;;;;;;10155231;29;21328;-71
2021/08/29 06:41:15;;;;;;;0.00;0.00;;;;;;;;;;10236918;28;20058;-73
2021/08/29 06:46:19;;;;;;;0.00;0.00;;;;;;;;;;10260461;28;20924;-69
2021/08/29 06:51:40;;;;;;;0.10;0.10;;;;;;;;;;10272728;28;20059;-72
2021/08/29 06:57:13;;;;;;;0.00;0.00;;;;;;;;;;10235641;28;20065;-72
2021/08/29 07:02:16;;;;;;;0.00;0.00;;;;;;;;;;10258424;28;20114;-68
2021/08/29 07:07:20;;;;;;;0.00;0.00;;;;;;;;;;10257386;28;20050;-75
2021/08/29 07:12:47;;;;;;;0.00;0.00;;;;;;;;;;10257163;28;20050;-75
2021/08/29 07:17:58;;;;;;;0.00;0.00;;;;;;;;;;10255490;28;21487;-75
2021/08/29 07:23:36;;;;;;;0.00;0.00;;;;;;;;;;10178367;28;20448;-75
2021/08/29 07:28:59;;;;;;;0.00;0.00;;;;;;;;;;10280075;28;20054;-75
2021/08/29 07:34:41;;;;;;;0.00;0.00;;;;;;;;;;10196678;29;20540;-74
2021/08/29 07:40:04;;;;;;;0.00;0.00;;;;;;;;;;10238073;28;20058;-76
2021/08/29 07:45:11;;;;;;;0.00;0.00;;;;;;;;;;10264829;28;20085;-75
2021/08/29 07:50:14;;;;;;;0.00;0.00;;;;;;;;;;10279738;28;20059;-76
2021/08/29 07:55:17;;;;;;;0.00;0.00;;;;;;;;;;10254316;28;20246;-74
2021/08/29 08:00:24;;;;;;;0.00;0.00;;;;;;;;;;10269357;28;20051;-74
2021/08/29 08:05:47;;;;;;;0.00;0.00;;;;;;;;;;10273650;28;20509;-75
2021/08/29 08:11:09;;;;;;;0.00;0.00;;;;;;;;;;10271943;28;20054;-75
2021/08/29 08:16:14;;;;;;;0.00;0.00;;;;;;;;;;10256672;28;20406;-77
2021/08/29 08:21:18;;;;;;;0.00;0.00;;;;;;;;;;10252293;28;20059;-75
2021/08/29 08:26:20;;;;;;;0.00;0.00;;;;;;;;;;10274339;28;20445;-75
2021/08/29 08:31:43;;;;;;;0.00;0.00;;;;;;;;;;10272559;28;20059;-77
2021/08/29 08:37:06;;;;;;;0.00;0.00;;;;;;;;;;10255937;28;20063;-77
2021/08/29 08:42:28;;;;;;;0.00;0.00;;;;;;;;;;10249508;28;20050;-76
2021/08/29 08:47:52;;;;;;;0.00;0.00;;;;;;;;;;10275560;28;20126;-73
2021/08/29 08:53:15;;;;;;;0.00;0.00;;;;;;;;;;10280918;28;20161;-75
2021/08/29 08:58:40;;;;;;;0.00;0.00;;;;;;;;;;10278790;28;20176;-76
2021/08/29 09:04:06;;;;;;;0.00;0.00;;;;;;;;;;10280344;28;20050;-75
2021/08/29 09:09:19;;;;;;;0.00;0.00;;;;;;;;;;10277404;28;20066;-76
2021/08/29 09:14:37;;;;;;;0.00;0.00;;;;;;;;;;10258910;28;20055;-76
2021/08/29 09:19:44;;;;;;;0.00;0.00;;;;;;;;;;10233153;28;20163;-77
2021/08/29 09:24:50;;;;;;;0.00;0.00;;;;;;;;;;10221290;28;20811;-76
2021/08/29 09:30:12;;;;;;;0.00;0.00;;;;;;;;;;10237741;28;20043;-76
2021/08/29 09:35:17;;;;;;;0.00;0.00;;;;;;;;;;10238501;28;20055;-74
2021/08/29 09:40:52;;;;;;;0.00;0.00;;;;;;;;;;10238823;28;20560;-76
2021/08/29 09:46:10;;;;;;;0.00;0.00;;;;;;;;;;10219597;28;20226;-76
2021/08/29 09:51:47;;;;;;;0.00;0.00;;;;;;;;;;10208949;29;20138;-77
2021/08/29 09:57:13;;;;;;;0.00;0.00;;;;;;;;;;10221315;28;20498;-73
2021/08/29 10:02:36;;;;;;;0.00;0.00;;;;;;;;;;10229528;28;20134;-75
2021/08/29 10:13:09;;;;;;;0.00;0.00;;;;;;;;;;10653487;27;20638;-72
2021/08/29 10:18:15;;;;;;;0.00;0.00;;;;;;;;;;10602160;27;20066;-72
2021/08/29 10:23:48;;;;;;;0.00;0.00;;;;;;;;;;10558553;27;20043;-71
2021/08/29 10:28:58;;;;;;;0.00;0.00;;;;;;;;;;10605912;27;20556;-71
2021/08/29 10:34:34;;;;;;;0.00;0.00;;;;;;;;;;10591667;27;20100;-72
2021/08/29 10:39:37;;;;;;;0.00;0.00;;;;;;;;;;10600619;27;20047;-73
2021/08/29 10:44:58;;;;;;;0.00;0.00;;;;;;;;;;10603872;27;20042;-71
2021/08/29 10:50:25;;;;;;;0.00;0.00;;;;;;;;;;10612515;27;20044;-72
2021/08/29 10:55:29;;;;;;;0.00;0.00;;;;;;;;;;10627916;27;20084;-71
2021/08/29 11:00:34;;;;;;;0.00;0.00;;;;;;;;;;10610515;27;20045;-70
2021/08/29 11:05:57;;;;;;;0.00;0.00;;;;;;;;;;10620415;27;20047;-71
2021/08/29 11:11:04;;;;;;;0.00;0.00;;;;;;;;;;10596943;27;20035;-72
2021/08/29 11:16:21;;;;;;;0.00;0.00;;;;;;;;;;10600178;27;20055;-71
2021/08/29 11:22:01;;;;;;;0.00;0.00;;;;;;;;;;10601062;27;20058;-72
2021/08/29 11:27:44;;;;;;;0.00;0.00;;;;;;;;;;10592885;27;20050;-71
2021/08/29 11:33:08;;;;;;;0.00;0.00;;;;;;;;;;10591900;27;20044;-73
2021/08/29 11:38:12;;;;;;;0.00;0.00;;;;;;;;;;10600085;27;20047;-75
2021/08/29 11:43:20;;;;;;;0.00;0.00;;;;;;;;;;10588240;27;20092;-73
2021/08/29 11:48:29;;;;;;;0.00;0.00;;;;;;;;;;10573523;27;20132;-73
2021/08/29 11:53:46;;;;;;;0.00;0.00;;;;;;;;;;10577065;27;20504;-74
2021/08/29 11:58:49;;;;;;;0.00;0.00;;;;;;;;;;10563725;27;20075;-74
2021/08/29 12:03:56;;;;;;;0.00;0.00;;;;;;;;;;10568646;27;20507;-75
2021/08/29 12:09:17;;;;;;;0.00;0.00;;;;;;;;;;10571740;27;20071;-74
2021/08/29 12:14:41;;;;;;;0.00;0.00;;;;;;;;;;10543193;27;20070;-74
2021/08/29 12:20:24;;;;;;;0.00;0.00;;;;;;;;;;10472451;28;20060;-74
2021/08/29 12:25:55;;;;;;;0.00;0.00;;;;;;;;;;10565644;27;20082;-74
2021/08/29 12:30:59;;;;;;;0.00;0.00;;;;;;;;;;10565227;27;20043;-74
2021/08/29 12:36:11;;;;;;;0.00;0.00;;;;;;;;;;10561939;27;20461;-74
2021/08/29 12:41:16;;;;;;;0.00;0.00;;;;;;;;;;10568959;27;20451;-72
2021/08/29 12:46:22;;;;;;;0.00;0.00;;;;;;;;;;10600844;27;20065;-74
2021/08/29 12:51:28;;;;;;;0.00;0.00;;;;;;;;;;10577498;27;20043;-74
2021/08/29 12:56:30;;;;;;;0.00;0.00;;;;;;;;;;10576080;27;20071;-74
2021/08/29 13:01:34;;;;;;;0.00;0.00;;;;;;;;;;10568149;27;20044;-74
2021/08/29 13:06:39;;;;;;;0.00;0.00;;;;;;;;;;10579922;27;20050;-74
2021/08/29 13:11:44;;;;;;;0.00;0.00;;;;;;;;;;10592087;27;20051;-74
2021/08/29 13:16:47;;;;;;;0.00;0.00;;;;;;;;;;10589614;27;20090;-74
2021/08/29 13:21:57;;;;;;;0.00;0.00;;;;;;;;;;10575994;27;20038;-74
2021/08/29 13:27:00;;;;;;;0.00;0.00;;;;;;;;;;10585922;27;20047;-74
2021/08/29 13:32:03;;;;;;;0.00;0.00;;;;;;;;;;10583101;27;20039;-74
2021/08/29 13:37:10;;;;;;;0.00;0.00;;;;;;;;;;10588875;27;20504;-74
2021/08/29 13:42:21;;;;;;;0.00;0.00;;;;;;;;;;10593288;27;20051;-74
2021/08/29 13:47:25;;;;;;;0.00;0.00;;;;;;;;;;10585613;27;20108;-74
2021/08/29 13:52:36;;;;;;;0.00;0.00;;;;;;;;;;10566148;27;20047;-72
2021/08/29 13:57:39;;;;;;;0.00;0.00;;;;;;;;;;10577830;27;20467;-74
2021/08/29 14:02:42;;;;;;;0.00;0.00;;;;;;;;;;10557236;27;20890;-74
2021/08/29 14:07:50;;;;;;;0.00;0.00;;;;;;;;;;10579346;27;20044;-75
2021/08/29 14:12:53;;;;;;;0.00;0.00;;;;;;;;;;10589521;27;20056;-74
2021/08/29 14:17:56;;;;;;;0.00;0.00;;;;;;;;;;10584779;27;20056;-74
2021/08/29 14:23:00;;;;;;;0.00;0.00;;;;;;;;;;10596386;27;20139;-74
2021/08/29 14:28:03;;;;;;;0.00;0.00;;;;;;;;;;10587714;27;20043;-74
2021/08/29 14:33:07;;;;;;;0.00;0.00;;;;;;;;;;10578277;27;20560;-72
2021/08/29 14:38:11;;;;;;;0.00;0.00;;;;;;;;;;10564856;27;20143;-72
2021/08/29 14:43:13;;;;;;;0.00;0.00;;;;;;;;;;10590696;27;20043;-72
2021/08/29 14:48:16;;;;;;;0.00;0.00;;;;;;;;;;10577328;27;20050;-72
2021/08/29 14:53:20;;;;;;;0.00;0.00;;;;;;;;;;10574048;27;20031;-72
2021/08/29 14:58:23;;;;;;;0.00;0.00;;;;;;;;;;10573811;27;20550;-72
2021/08/29 15:03:26;;;;;;;0.00;0.00;;;;;;;;;;10596602;27;20039;-74
2021/08/29 15:08:30;;;;;;;0.00;0.00;;;;;;;;;;10588859;27;20059;-74
2021/08/29 15:13:33;;;;;;;0.00;0.00;;;;;;;;;;10593265;27;20040;-72
2021/08/29 15:18:36;;;;;;;0.00;0.00;;;;;;;;;;10546304;27;20056;-72
2021/08/29 15:23:41;;;;;;;0.00;0.00;;;;;;;;;;10533976;28;20044;-72
2021/08/29 15:28:44;;;;;;;0.00;0.00;;;;;;;;;;10536644;28;20052;-72
2021/08/29 15:33:46;;;;;;;0.00;0.00;;;;;;;;;;10534445;28;20036;-73
2021/08/29 15:38:50;;;;;;;0.00;0.00;;;;;;;;;;10535127;28;20039;-73
2021/08/29 15:43:53;;;;;;;0.00;0.00;;;;;;;;;;10531810;28;20040;-73
2021/08/29 15:48:56;;;;;;;0.00;0.00;;;;;;;;;;10535358;28;20044;-72
2021/08/29 15:54:00;;;;;;;0.00;0.00;;;;;;;;;;10518086;28;20401;-71
2021/08/29 15:59:03;;;;;;;0.00;0.00;;;;;;;;;;10534165;28;20050;-71
2021/08/29 16:04:06;;;;;;;0.00;0.00;;;;;;;;;;10536838;28;20036;-71
2021/08/29 16:09:10;;;;;;;0.00;0.00;;;;;;;;;;10512860;28;20134;-71
2021/08/29 16:14:13;;;;;;;0.00;0.00;;;;;;;;;;10533202;28;20040;-71
2021/08/29 16:19:16;;;;;;;0.00;0.00;;;;;;;;;;10533605;28;20123;-70
2021/08/29 16:24:20;;;;;;;0.00;0.00;;;;;;;;;;10534894;28;20040;-71
2021/08/29 16:29:23;;;;;;;0.00;0.00;;;;;;;;;;10529037;28;20040;-71
2021/08/29 16:34:26;;;;;;;0.00;0.00;;;;;;;;;;10518894;28;20044;-71
2021/08/29 16:39:30;;;;;;;0.00;0.00;;;;;;;;;;10531108;28;20046;-70
2021/08/29 16:44:33;;;;;;;0.00;0.00;;;;;;;;;;10511015;28;20036;-71
2021/08/29 16:49:36;;;;;;;0.00;0.00;;;;;;;;;;10517896;28;20051;-72
2021/08/29 16:54:40;;;;;;;0.00;0.00;;;;;;;;;;10535540;28;20047;-72
2021/08/29 16:59:44;;;;;;;0.00;0.00;;;;;;;;;;10531828;28;20058;-72
2021/08/29 17:04:47;;;;;;;0.00;0.00;;;;;;;;;;10513051;28;20139;-72
2021/08/29 17:09:53;;;;;;;0.00;0.00;;;;;;;;;;10531161;28;20048;-73
2021/08/29 17:14:57;;;;;;;0.00;0.00;;;;;;;;;;10534537;28;20039;-73
2021/08/29 17:20:01;;;;;;;0.00;0.00;;;;;;;;;;10531850;28;20040;-72
2021/08/29 17:25:08;;;;;;;0.00;0.00;;;;;;;;;;10533898;28;20032;-72
2021/08/29 17:30:11;;;;;;;0.00;0.00;;;;;;;;;;10519270;28;20075;-72
2021/08/29 17:35:14;;;;;;;0.00;0.00;;;;;;;;;;10528049;28;20048;-72
2021/08/29 17:40:19;;;;;;;0.00;0.00;;;;;;;;;;10513655;28;20043;-73
2021/08/29 17:45:23;;;;;;;0.00;0.00;;;;;;;;;;10511786;28;20157;-71
2021/08/29 17:50:26;;;;;;;0.00;0.00;;;;;;;;;;10547452;28;20460;-73
2021/08/29 17:55:31;;;;;;;0.00;0.00;;;;;;;;;;10537214;28;20036;-72
2021/08/29 18:00:34;;;;;;;0.00;0.00;;;;;;;;;;10536318;28;20036;-75
2021/08/29 18:05:38;;;;;;;0.00;0.00;;;;;;;;;;10510422;28;20048;-72
2021/08/29 18:10:46;;;;;;;0.00;0.00;;;;;;;;;;10532256;28;20052;-75
2021/08/29 18:15:57;;;;;;;0.00;0.00;;;;;;;;;;10530987;28;20047;-76
2021/08/29 18:21:01;;;;;;;0.00;0.00;;;;;;;;;;10532033;28;20066;-73
2021/08/29 18:26:22;;;;;;;0.00;0.00;;;;;;;;;;10536646;28;20052;-73
2021/08/29 18:31:27;;;;;;;0.00;0.00;;;;;;;;;;10510189;28;20080;-72
2021/08/29 18:36:31;;;;;;;0.00;0.00;;;;;;;;;;10535786;28;20123;-72
2021/08/29 18:41:37;;;;;;;0.00;0.00;;;;;;;;;;10540877;28;20131;-72
2021/08/29 18:46:39;;;;;;;0.00;0.00;;;;;;;;;;10544616;28;20046;-72
2021/08/29 18:51:44;;;;;;;0.00;0.00;;;;;;;;;;10545839;28;20048;-72
2021/08/29 18:56:48;;;;;;;0.00;0.00;;;;;;;;;;10539319;28;20040;-72
2021/08/29 19:01:55;;;;;;;0.00;0.00;;;;;;;;;;10539557;28;20491;-73
2021/08/29 19:06:59;;;;;;;0.00;0.00;;;;;;;;;;10535729;28;20052;-72
2021/08/29 19:12:09;;;;;;;0.00;0.00;;;;;;;;;;10522726;28;20059;-71
2021/08/29 19:17:12;;;;;;;0.00;0.00;;;;;;;;;;10540344;28;20067;-71
2021/08/29 19:22:17;;;;;;;0.00;0.00;;;;;;;;;;10537035;28;20099;-72
2021/08/29 19:27:23;;;;;;;0.00;0.00;;;;;;;;;;10544940;28;20046;-71
2021/08/29 19:32:26;;;;;;;0.00;0.00;;;;;;;;;;10535558;28;20043;-71
2021/08/29 19:37:29;;;;;;;0.00;0.00;;;;;;;;;;10534314;28;20060;-71
2021/08/29 19:42:33;;;;;;;0.00;0.00;;;;;;;;;;10532892;28;20051;-71
2021/08/29 19:47:36;;;;;;;0.00;0.00;;;;;;;;;;10518233;28;20075;-71
2021/08/29 19:52:39;;;;;;;0.00;0.00;;;;;;;;;;10537388;28;20661;-71
2021/08/29 19:57:44;;;;;;;0.00;0.00;;;;;;;;;;10535087;28;20493;-71
2021/08/29 20:02:49;;;;;;;0.70;0.30;;;;;;;;;;10522429;28;20040;-71
2021/08/29 20:07:54;;;;;;;0.20;0.10;;;;;;;;;;10537435;28;20455;-71
2021/08/29 20:13:00;;;;;;;0.52;0.20;;;;;;;;;;10534081;28;20147;-71
2021/08/29 20:18:05;;;;;;;0.60;0.30;;;;;;;;;;10519275;28;20062;-71
2021/08/29 20:23:08;;;;;;;2.00;0.70;;;;;;;;;;10541188;28;20060;-71
2021/08/29 20:28:13;;;;;;;1.33;0.55;;;;;;;;;;10536734;28;20047;-71
2021/08/29 20:33:16;;;;;;;0.20;0.15;;;;;;;;;;10534670;28;20036;-71
2021/08/29 20:38:19;;;;;;;0.22;0.10;;;;;;;;;;10535777;28;20097;-71
2021/08/29 20:43:24;;;;;;;0.20;0.10;;;;;;;;;;10514657;28;20039;-71
2021/08/29 20:48:27;;;;;;;1.38;0.55;;;;;;;;;;10536512;28;20130;-70
2021/08/29 20:53:30;;;;;;;0.63;0.10;;;;;;;;;;10536940;28;20475;-71
2021/08/29 20:58:34;;;;;;;0.00;0.00;;;;;;;;;;10532335;28;20040;-71
2021/08/29 21:03:37;;;;;;;0.10;0.10;;;;;;;;;;10534766;28;20043;-71
2021/08/29 21:08:40;;;;;;;0.05;0.05;;;;;;;;;;10535333;28;20140;-71
2021/08/29 21:13:44;;;;;;;0.43;0.20;;;;;;;;;;10512982;28;20044;-71
2021/08/29 21:18:47;;;;;;;0.10;0.10;;;;;;;;;;10528082;28;20077;-71
2021/08/29 21:23:54;;;;;;;0.00;0.00;;;;;;;;;;10523998;28;20043;-71
2021/08/29 21:28:59;;;;;;;0.00;0.00;;;;;;;;;;10534422;28;20040;-71
2021/08/29 21:34:03;;;;;;;0.03;0.00;;;;;;;;;;10532677;28;20043;-71
2021/08/29 21:39:07;;;;;;;0.08;0.08;;;;;;;;;;10533104;28;20039;-71
2021/08/29 21:44:11;;;;;;;0.30;0.20;;;;;;;;;;10513882;28;20378;-72
2021/08/29 21:49:15;;;;;;;0.00;0.00;;;;;;;;;;10528528;28;20046;-72
2021/08/29 21:54:18;;;;;;;0.00;0.00;;;;;;;;;;10541657;28;20387;-71
2021/08/29 21:59:22;;;;;;;0.00;0.00;;;;;;;;;;10532672;28;20055;-72
2021/08/29 22:04:26;;;;;;;0.00;0.00;;;;;;;;;;10534329;28;20089;-72
2021/08/29 22:09:29;;;;;;;0.00;0.00;;;;;;;;;;10534306;28;20048;-72
2021/08/29 22:14:34;;;;;;;0.05;0.05;;;;;;;;;;10533072;28;20044;-71
2021/08/29 22:19:38;;;;;;;0.00;0.00;;;;;;;;;;10513293;28;20058;-71
2021/08/29 22:24:41;;;;;;;0.00;0.00;;;;;;;;;;10528665;28;20398;-72
2021/08/29 22:29:45;;;;;;;0.00;0.00;;;;;;;;;;10533572;28;20109;-71
2021/08/29 22:34:49;;;;;;;0.00;0.00;;;;;;;;;;10529975;28;20047;-72
2021/08/29 22:39:53;;;;;;;0.00;0.00;;;;;;;;;;10531303;28;20052;-71
2021/08/29 22:44:59;;;;;;;0.00;0.00;;;;;;;;;;10530623;28;20032;-71
2021/08/29 22:50:02;;;;;;;0.00;0.00;;;;;;;;;;10533569;28;20477;-71
2021/08/29 22:55:05;;;;;;;0.00;0.00;;;;;;;;;;10529991;28;20398;-72
2021/08/29 23:00:10;;;;;;;0.00;0.00;;;;;;;;;;10531643;28;20067;-72
2021/08/29 23:05:14;;;;;;;0.00;0.00;;;;;;;;;;10532455;28;20047;-71
2021/08/29 23:10:17;;;;;;;0.00;0.00;;;;;;;;;;10531558;28;20060;-71
2021/08/29 23:15:21;;;;;;;0.00;0.00;;;;;;;;;;10510758;28;20489;-71
2021/08/29 23:20:24;;;;;;;0.00;0.00;;;;;;;;;;10523524;28;20075;-71
2021/08/29 23:25:30;;;;;;;0.05;0.00;;;;;;;;;;10522137;28;20126;-71
2021/08/29 23:30:34;;;;;;;0.10;0.10;;;;;;;;;;10539954;28;20059;-71
2021/08/29 23:35:37;;;;;;;0.00;0.00;;;;;;;;;;10536993;28;20049;-72
2021/08/29 23:40:40;;;;;;;0.00;0.00;;;;;;;;;;10536416;28;20574;-71
2021/08/29 23:45:44;;;;;;;0.00;0.00;;;;;;;;;;10517443;28;20036;-72
2021/08/29 23:50:47;;;;;;;0.00;0.00;;;;;;;;;;10517444;28;20055;-72
2021/08/29 23:55:50;;;;;;;0.00;0.00;;;;;;;;;;10552373;27;20059;-71
